This is the latest recevied weather packets stored in our database for station/object KD8AZC-13. If no packets are shown the sender has not sent any weather packets the latest 10 day(s).
| Time | Temp. | Humidity | Pressure | Rain* | Wind** | Luminosity | Snow |
|---|---|---|---|---|---|---|---|
| 1777308355 | 19.44° C | 42% | 1022.5 hPa | 0 mm | - | - | - |
| 1777302947 | 16.67° C | 53% | 1023.3 hPa | 0 mm | - | - | - |
| 1777295705 | 10.56° C | 82% | 1024.4 hPa | 0 mm | - | - | - |
| 1777290337 | 5.56° C | 92% | 1024.1 hPa | 0 mm | - | - | - |
| 1777287636 | 4.44° C | 92% | 1023.7 hPa | 0 mm | - | - | - |
| 1777285825 | 5° C | 92% | 1022.9 hPa | 0 mm | - | - | - |
| 1777283124 | 5.56° C | 91% | 1022.3 hPa | 0 mm | - | - | - |
| 1777282228 | 5.56° C | 90% | 1022.3 hPa | 0 mm | - | - | - |
| 1777281317 | 6.11° C | 90% | 1022.2 hPa | 0 mm | - | - | - |
| 1777278607 | 7.78° C | 87% | 1022.1 hPa | 0 mm | - | - | - |
| 1777274156 | 8.89° C | 86% | 1022.5 hPa | 0 mm | - | - | - |
| 1777270551 | 8.89° C | 88% | 1022.6 hPa | 0 mm | - | - | - |
| 1777263345 | 9.44° C | 86% | 1022.7 hPa | 0 mm | - | - | - |
| 1777253423 | 10° C | 80% | 1022.1 hPa | 0 mm | - | - | - |
| 1777248913 | 10° C | 80% | 1021 hPa | 0 mm | - | - | - |
| 1777248017 | 10° C | 79% | 1020.7 hPa | 0 mm | - | - | - |
| 1777244410 | 10.56° C | 77% | 1020.1 hPa | 0 mm | - | - | - |
| 1777242605 | 10.56° C | 78% | 1020 hPa | 0 mm | - | - | - |
| 1777239902 | 11.11° C | 76% | 1019.7 hPa | 0 mm | - | - | - |
| 1777238160 | 11.11° C | 77% | 1019.3 hPa | 0 mm | - | - | - |
| 1777237257 | 11.11° C | 77% | 1019.1 hPa | 0 mm | - | - | - |
| 1777236361 | 11.11° C | 78% | 1019.1 hPa | 0 mm | - | - | - |
| 1777231852 | 11.67° C | 79% | 1019.2 hPa | 0 mm | - | - | - |
| 1777225544 | 11.67° C | 80% | 1018.9 hPa | 0 mm | - | - | - |
| 1777223745 | 11.67° C | 79% | 1018.9 hPa | 0 mm | - | - | - |
* Rain latest hour (hover to see other rain measurements)
** Current wind speed in m/s (hover to see current wind gust speed)